sensor_id;sensor_type;location;lat;lon;timestamp;P1;durP1;ratioP1;P2;durP2;ratioP2
22460;SDS011;11397;48.410;11.468;2023-06-22T00:00:48;3.25;;;3.15;;
22460;SDS011;11397;48.410;11.468;2023-06-22T00:05:51;3.63;;;3.53;;
22460;SDS011;11397;48.410;11.468;2023-06-22T00:10:53;3.70;;;3.60;;
22460;SDS011;11397;48.410;11.468;2023-06-22T00:15:55;3.17;;;3.08;;
22460;SDS011;11397;48.410;11.468;2023-06-22T00:20:59;3.83;;;3.72;;
22460;SDS011;11397;48.410;11.468;2023-06-22T00:26:00;3.70;;;3.60;;
22460;SDS011;11397;48.410;11.468;2023-06-22T00:31:07;3.85;;;3.75;;
22460;SDS011;11397;48.410;11.468;2023-06-22T00:36:10;3.42;;;3.33;;
22460;SDS011;11397;48.410;11.468;2023-06-22T00:41:13;3.65;;;3.55;;
22460;SDS011;11397;48.410;11.468;2023-06-22T00:46:16;3.60;;;3.50;;
22460;SDS011;11397;48.410;11.468;2023-06-22T00:51:19;3.80;;;3.70;;
22460;SDS011;11397;48.410;11.468;2023-06-22T00:56:25;3.70;;;3.60;;
22460;SDS011;11397;48.410;11.468;2023-06-22T01:01:30;3.70;;;3.60;;
22460;SDS011;11397;48.410;11.468;2023-06-22T01:06:35;3.78;;;3.67;;
22460;SDS011;11397;48.410;11.468;2023-06-22T01:11:41;3.70;;;3.60;;
22460;SDS011;11397;48.410;11.468;2023-06-22T01:16:46;3.80;;;3.70;;
22460;SDS011;11397;48.410;11.468;2023-06-22T01:21:50;4.15;;;4.05;;
22460;SDS011;11397;48.410;11.468;2023-06-22T01:26:54;3.50;;;3.40;;
22460;SDS011;11397;48.410;11.468;2023-06-22T01:31:59;3.33;;;3.22;;
22460;SDS011;11397;48.410;11.468;2023-06-22T01:37:03;3.75;;;3.65;;
22460;SDS011;11397;48.410;11.468;2023-06-22T01:42:05;3.63;;;3.53;;
22460;SDS011;11397;48.410;11.468;2023-06-22T01:47:08;3.47;;;3.38;;
22460;SDS011;11397;48.410;11.468;2023-06-22T01:52:11;3.65;;;3.55;;
22460;SDS011;11397;48.410;11.468;2023-06-22T01:57:17;3.60;;;3.50;;
22460;SDS011;11397;48.410;11.468;2023-06-22T02:02:21;4.03;;;3.92;;
22460;SDS011;11397;48.410;11.468;2023-06-22T02:07:31;3.65;;;3.55;;
22460;SDS011;11397;48.410;11.468;2023-06-22T02:12:36;3.90;;;3.80;;
22460;SDS011;11397;48.410;11.468;2023-06-22T02:17:39;3.67;;;3.58;;
22460;SDS011;11397;48.410;11.468;2023-06-22T02:22:45;3.50;;;3.40;;
22460;SDS011;11397;48.410;11.468;2023-06-22T02:27:47;3.72;;;3.63;;
22460;SDS011;11397;48.410;11.468;2023-06-22T02:32:52;3.90;;;3.80;;
22460;SDS011;11397;48.410;11.468;2023-06-22T02:37:59;3.70;;;3.60;;
22460;SDS011;11397;48.410;11.468;2023-06-22T02:43:01;3.42;;;3.33;;
22460;SDS011;11397;48.410;11.468;2023-06-22T02:48:06;4.05;;;3.95;;
22460;SDS011;11397;48.410;11.468;2023-06-22T02:53:08;4.30;;;4.20;;
22460;SDS011;11397;48.410;11.468;2023-06-22T02:58:13;3.15;;;3.05;;
22460;SDS011;11397;48.410;11.468;2023-06-22T03:03:16;3.90;;;3.80;;
22460;SDS011;11397;48.410;11.468;2023-06-22T03:08:18;3.90;;;3.80;;
22460;SDS011;11397;48.410;11.468;2023-06-22T03:13:20;3.80;;;3.70;;
22460;SDS011;11397;48.410;11.468;2023-06-22T03:18:23;3.85;;;3.75;;
22460;SDS011;11397;48.410;11.468;2023-06-22T03:23:26;3.83;;;3.72;;
22460;SDS011;11397;48.410;11.468;2023-06-22T03:28:29;3.92;;;3.83;;
22460;SDS011;11397;48.410;11.468;2023-06-22T03:33:32;4.10;;;4.00;;
22460;SDS011;11397;48.410;11.468;2023-06-22T03:38:34;3.95;;;3.85;;
22460;SDS011;11397;48.410;11.468;2023-06-22T03:43:36;4.13;;;4.03;;
22460;SDS011;11397;48.410;11.468;2023-06-22T03:48:39;3.78;;;3.67;;
22460;SDS011;11397;48.410;11.468;2023-06-22T03:53:41;4.22;;;4.13;;
22460;SDS011;11397;48.410;11.468;2023-06-22T03:58:44;3.95;;;3.85;;
22460;SDS011;11397;48.410;11.468;2023-06-22T04:03:47;3.88;;;3.78;;
22460;SDS011;11397;48.410;11.468;2023-06-22T04:08:50;4.10;;;4.00;;
22460;SDS011;11397;48.410;11.468;2023-06-22T04:13:51;3.83;;;3.72;;
22460;SDS011;11397;48.410;11.468;2023-06-22T04:18:55;3.80;;;3.70;;
22460;SDS011;11397;48.410;11.468;2023-06-22T04:23:57;3.75;;;3.65;;
22460;SDS011;11397;48.410;11.468;2023-06-22T04:28:58;3.60;;;3.50;;
22460;SDS011;11397;48.410;11.468;2023-06-22T04:34:03;4.03;;;3.92;;
22460;SDS011;11397;48.410;11.468;2023-06-22T04:39:07;4.13;;;4.03;;
22460;SDS011;11397;48.410;11.468;2023-06-22T04:44:10;4.15;;;4.05;;
22460;SDS011;11397;48.410;11.468;2023-06-22T04:49:13;4.10;;;4.00;;
22460;SDS011;11397;48.410;11.468;2023-06-22T04:54:15;3.97;;;3.88;;
22460;SDS011;11397;48.410;11.468;2023-06-22T04:59:17;4.05;;;3.95;;
22460;SDS011;11397;48.410;11.468;2023-06-22T05:04:21;3.50;;;3.40;;
22460;SDS011;11397;48.410;11.468;2023-06-22T05:09:22;3.95;;;3.85;;
22460;SDS011;11397;48.410;11.468;2023-06-22T05:14:25;3.65;;;3.55;;
22460;SDS011;11397;48.410;11.468;2023-06-22T05:19:28;4.00;;;3.90;;
22460;SDS011;11397;48.410;11.468;2023-06-22T05:24:33;4.18;;;4.07;;
22460;SDS011;11397;48.410;11.468;2023-06-22T05:29:35;3.75;;;3.65;;
22460;SDS011;11397;48.410;11.468;2023-06-22T05:34:39;3.67;;;3.58;;
22460;SDS011;11397;48.410;11.468;2023-06-22T05:39:40;4.10;;;4.00;;
22460;SDS011;11397;48.410;11.468;2023-06-22T05:44:42;3.90;;;3.80;;
22460;SDS011;11397;48.410;11.468;2023-06-22T05:49:45;3.85;;;3.75;;
22460;SDS011;11397;48.410;11.468;2023-06-22T05:54:47;4.13;;;4.03;;
22460;SDS011;11397;48.410;11.468;2023-06-22T05:59:49;3.83;;;3.72;;
22460;SDS011;11397;48.410;11.468;2023-06-22T06:04:53;3.97;;;3.88;;
22460;SDS011;11397;48.410;11.468;2023-06-22T06:09:55;3.60;;;3.50;;
22460;SDS011;11397;48.410;11.468;2023-06-22T06:14:57;3.72;;;3.63;;
22460;SDS011;11397;48.410;11.468;2023-06-22T06:20:00;3.42;;;3.33;;
22460;SDS011;11397;48.410;11.468;2023-06-22T06:25:05;3.72;;;3.63;;
22460;SDS011;11397;48.410;11.468;2023-06-22T06:30:07;3.90;;;3.80;;
22460;SDS011;11397;48.410;11.468;2023-06-22T06:35:11;3.90;;;3.80;;
22460;SDS011;11397;48.410;11.468;2023-06-22T06:40:13;3.88;;;3.78;;
22460;SDS011;11397;48.410;11.468;2023-06-22T06:45:15;3.58;;;3.47;;
22460;SDS011;11397;48.410;11.468;2023-06-22T06:50:19;4.00;;;3.90;;
22460;SDS011;11397;48.410;11.468;2023-06-22T06:55:21;3.80;;;3.70;;
22460;SDS011;11397;48.410;11.468;2023-06-22T07:00:29;3.63;;;3.53;;
22460;SDS011;11397;48.410;11.468;2023-06-22T07:05:54;3.70;;;3.60;;
22460;SDS011;11397;48.410;11.468;2023-06-22T07:11:15;3.63;;;3.53;;
22460;SDS011;11397;48.410;11.468;2023-06-22T07:16:40;4.00;;;3.90;;
22460;SDS011;11397;48.410;11.468;2023-06-22T07:22:03;3.70;;;3.60;;
22460;SDS011;11397;48.410;11.468;2023-06-22T07:27:24;3.70;;;3.60;;
22460;SDS011;11397;48.410;11.468;2023-06-22T07:32:26;3.70;;;3.60;;
22460;SDS011;11397;48.410;11.468;2023-06-22T07:37:30;3.78;;;3.67;;
22460;SDS011;11397;48.410;11.468;2023-06-22T07:42:33;3.92;;;3.83;;
22460;SDS011;11397;48.410;11.468;2023-06-22T07:47:35;3.72;;;3.63;;
22460;SDS011;11397;48.410;11.468;2023-06-22T07:52:38;3.80;;;3.70;;
22460;SDS011;11397;48.410;11.468;2023-06-22T07:58:05;3.70;;;3.60;;
22460;SDS011;11397;48.410;11.468;2023-06-22T08:03:25;3.80;;;3.70;;
22460;SDS011;11397;48.410;11.468;2023-06-22T08:08:47;3.78;;;3.67;;
22460;SDS011;11397;48.410;11.468;2023-06-22T08:14:14;3.35;;;3.25;;
22460;SDS011;11397;48.410;11.468;2023-06-22T08:19:36;3.55;;;3.45;;
22460;SDS011;11397;48.410;11.468;2023-06-22T08:24:58;3.50;;;3.40;;
22460;SDS011;11397;48.410;11.468;2023-06-22T08:30:20;3.25;;;3.15;;
22460;SDS011;11397;48.410;11.468;2023-06-22T08:35:41;3.58;;;3.47;;
22460;SDS011;11397;48.410;11.468;2023-06-22T08:41:03;3.40;;;3.30;;
22460;SDS011;11397;48.410;11.468;2023-06-22T08:46:24;3.45;;;3.35;;
22460;SDS011;11397;48.410;11.468;2023-06-22T08:51:49;3.00;;;2.90;;
22460;SDS011;11397;48.410;11.468;2023-06-22T08:57:13;3.30;;;3.20;;
22460;SDS011;11397;48.410;11.468;2023-06-22T09:02:34;3.25;;;3.15;;
22460;SDS011;11397;48.410;11.468;2023-06-22T09:07:56;3.38;;;3.28;;
22460;SDS011;11397;48.410;11.468;2023-06-22T09:13:20;3.15;;;3.05;;
22460;SDS011;11397;48.410;11.468;2023-06-22T09:18:46;3.03;;;2.92;;
22460;SDS011;11397;48.410;11.468;2023-06-22T09:24:07;3.15;;;3.05;;
22460;SDS011;11397;48.410;11.468;2023-06-22T09:29:29;3.30;;;3.20;;
22460;SDS011;11397;48.410;11.468;2023-06-22T09:34:52;3.40;;;3.30;;
22460;SDS011;11397;48.410;11.468;2023-06-22T09:40:13;3.30;;;3.20;;
22460;SDS011;11397;48.410;11.468;2023-06-22T09:45:37;3.38;;;3.28;;
22460;SDS011;11397;48.410;11.468;2023-06-22T09:50:58;3.30;;;3.20;;
22460;SDS011;11397;48.410;11.468;2023-06-22T09:56:19;3.25;;;3.15;;
22460;SDS011;11397;48.410;11.468;2023-06-22T10:01:41;3.50;;;3.40;;
22460;SDS011;11397;48.410;11.468;2023-06-22T10:07:03;3.30;;;3.20;;
22460;SDS011;11397;48.410;11.468;2023-06-22T10:12:25;3.47;;;3.38;;
22460;SDS011;11397;48.410;11.468;2023-06-22T10:17:48;3.10;;;3.00;;
22460;SDS011;11397;48.410;11.468;2023-06-22T10:23:08;3.20;;;3.10;;
22460;SDS011;11397;48.410;11.468;2023-06-22T10:28:29;4.00;;;3.80;;
22460;SDS011;11397;48.410;11.468;2023-06-22T10:33:50;3.40;;;3.30;;
22460;SDS011;11397;48.410;11.468;2023-06-22T10:39:12;3.20;;;3.10;;
22460;SDS011;11397;48.410;11.468;2023-06-22T10:44:33;3.30;;;3.20;;
22460;SDS011;11397;48.410;11.468;2023-06-22T10:49:54;3.10;;;3.00;;
22460;SDS011;11397;48.410;11.468;2023-06-22T10:55:15;3.42;;;3.33;;
22460;SDS011;11397;48.410;11.468;2023-06-22T11:00:37;3.10;;;3.00;;
22460;SDS011;11397;48.410;11.468;2023-06-22T11:05:59;3.70;;;3.60;;
22460;SDS011;11397;48.410;11.468;2023-06-22T11:11:20;3.10;;;3.00;;
22460;SDS011;11397;48.410;11.468;2023-06-22T11:16:43;3.47;;;3.38;;
22460;SDS011;11397;48.410;11.468;2023-06-22T11:22:07;3.03;;;2.92;;
22460;SDS011;11397;48.410;11.468;2023-06-22T11:27:27;2.70;;;2.70;;
22460;SDS011;11397;48.410;11.468;2023-06-22T11:32:48;2.90;;;2.80;;
22460;SDS011;11397;48.410;11.468;2023-06-22T11:38:09;3.10;;;3.00;;
22460;SDS011;11397;48.410;11.468;2023-06-22T11:43:29;2.67;;;2.60;;
22460;SDS011;11397;48.410;11.468;2023-06-22T11:48:50;3.15;;;3.05;;
22460;SDS011;11397;48.410;11.468;2023-06-22T11:54:11;2.97;;;2.88;;
22460;SDS011;11397;48.410;11.468;2023-06-22T11:59:13;2.90;;;2.80;;
22460;SDS011;11397;48.410;11.468;2023-06-22T12:04:15;3.03;;;2.92;;
22460;SDS011;11397;48.410;11.468;2023-06-22T12:09:18;3.05;;;2.95;;
22460;SDS011;11397;48.410;11.468;2023-06-22T12:14:20;3.10;;;3.00;;
22460;SDS011;11397;48.410;11.468;2023-06-22T12:19:22;3.38;;;3.28;;
22460;SDS011;11397;48.410;11.468;2023-06-22T12:24:25;3.28;;;3.17;;
22460;SDS011;11397;48.410;11.468;2023-06-22T12:29:26;2.97;;;2.88;;
22460;SDS011;11397;48.410;11.468;2023-06-22T12:34:28;3.22;;;3.13;;
22460;SDS011;11397;48.410;11.468;2023-06-22T12:39:31;3.35;;;3.25;;
22460;SDS011;11397;48.410;11.468;2023-06-22T12:44:33;3.20;;;3.10;;
22460;SDS011;11397;48.410;11.468;2023-06-22T12:49:35;3.10;;;3.00;;
22460;SDS011;11397;48.410;11.468;2023-06-22T12:54:38;3.13;;;3.03;;
22460;SDS011;11397;48.410;11.468;2023-06-22T12:59:40;3.10;;;3.00;;
22460;SDS011;11397;48.410;11.468;2023-06-22T13:04:42;3.10;;;3.00;;
22460;SDS011;11397;48.410;11.468;2023-06-22T13:09:46;3.08;;;2.97;;
22460;SDS011;11397;48.410;11.468;2023-06-22T13:14:51;3.10;;;3.00;;
22460;SDS011;11397;48.410;11.468;2023-06-22T13:19:53;3.00;;;2.90;;
22460;SDS011;11397;48.410;11.468;2023-06-22T13:24:56;3.10;;;3.00;;
22460;SDS011;11397;48.410;11.468;2023-06-22T13:29:58;2.90;;;2.80;;
22460;SDS011;11397;48.410;11.468;2023-06-22T13:35:00;2.90;;;2.80;;
22460;SDS011;11397;48.410;11.468;2023-06-22T13:40:04;3.20;;;3.10;;
22460;SDS011;11397;48.410;11.468;2023-06-22T13:45:07;2.97;;;2.88;;
22460;SDS011;11397;48.410;11.468;2023-06-22T13:50:11;3.10;;;3.00;;
22460;SDS011;11397;48.410;11.468;2023-06-22T13:55:15;2.60;;;2.60;;
22460;SDS011;11397;48.410;11.468;2023-06-22T14:00:17;2.60;;;2.60;;
22460;SDS011;11397;48.410;11.468;2023-06-22T14:05:19;2.92;;;2.83;;
22460;SDS011;11397;48.410;11.468;2023-06-22T14:10:22;2.85;;;2.80;;
22460;SDS011;11397;48.410;11.468;2023-06-22T14:15:24;2.85;;;2.75;;
22460;SDS011;11397;48.410;11.468;2023-06-22T14:20:26;2.92;;;2.83;;
22460;SDS011;11397;48.410;11.468;2023-06-22T14:25:29;2.58;;;2.58;;
22460;SDS011;11397;48.410;11.468;2023-06-22T14:30:31;2.60;;;2.60;;
22460;SDS011;11397;48.410;11.468;2023-06-22T14:35:33;2.80;;;2.70;;
22460;SDS011;11397;48.410;11.468;2023-06-22T14:40:36;2.60;;;2.60;;
22460;SDS011;11397;48.410;11.468;2023-06-22T14:45:38;2.78;;;2.67;;
22460;SDS011;11397;48.410;11.468;2023-06-22T14:50:40;2.67;;;2.67;;
22460;SDS011;11397;48.410;11.468;2023-06-22T14:55:43;2.60;;;2.60;;
22460;SDS011;11397;48.410;11.468;2023-06-22T15:00:45;2.70;;;2.70;;
22460;SDS011;11397;48.410;11.468;2023-06-22T15:05:47;2.90;;;2.80;;
22460;SDS011;11397;48.410;11.468;2023-06-22T15:10:50;2.50;;;2.50;;
22460;SDS011;11397;48.410;11.468;2023-06-22T15:15:52;2.78;;;2.78;;
22460;SDS011;11397;48.410;11.468;2023-06-22T15:20:54;2.60;;;2.60;;
22460;SDS011;11397;48.410;11.468;2023-06-22T15:25:58;2.85;;;2.80;;
22460;SDS011;11397;48.410;11.468;2023-06-22T15:31:00;2.78;;;2.67;;
22460;SDS011;11397;48.410;11.468;2023-06-22T15:36:02;2.50;;;2.50;;
22460;SDS011;11397;48.410;11.468;2023-06-22T15:41:06;2.65;;;2.65;;
22460;SDS011;11397;48.410;11.468;2023-06-22T15:46:07;2.70;;;2.70;;
22460;SDS011;11397;48.410;11.468;2023-06-22T15:51:09;2.60;;;2.60;;
22460;SDS011;11397;48.410;11.468;2023-06-22T15:56:12;2.80;;;2.70;;
22460;SDS011;11397;48.410;11.468;2023-06-22T16:01:14;2.63;;;2.63;;
22460;SDS011;11397;48.410;11.468;2023-06-22T16:06:16;2.70;;;2.60;;
22460;SDS011;11397;48.410;11.468;2023-06-22T16:11:19;2.55;;;2.55;;
22460;SDS011;11397;48.410;11.468;2023-06-22T16:16:21;2.53;;;2.53;;
22460;SDS011;11397;48.410;11.468;2023-06-22T16:21:23;2.60;;;2.60;;
22460;SDS011;11397;48.410;11.468;2023-06-22T16:26:29;2.60;;;2.60;;
22460;SDS011;11397;48.410;11.468;2023-06-22T16:31:31;2.97;;;2.88;;
22460;SDS011;11397;48.410;11.468;2023-06-22T16:36:33;2.65;;;2.63;;
22460;SDS011;11397;48.410;11.468;2023-06-22T16:41:36;2.95;;;2.80;;
22460;SDS011;11397;48.410;11.468;2023-06-22T16:46:38;2.67;;;2.67;;
22460;SDS011;11397;48.410;11.468;2023-06-22T16:51:40;2.75;;;2.67;;
22460;SDS011;11397;48.410;11.468;2023-06-22T16:56:44;2.78;;;2.72;;
22460;SDS011;11397;48.410;11.468;2023-06-22T17:01:48;2.60;;;2.60;;
22460;SDS011;11397;48.410;11.468;2023-06-22T17:06:53;2.80;;;2.70;;
22460;SDS011;11397;48.410;11.468;2023-06-22T17:11:56;2.78;;;2.70;;
22460;SDS011;11397;48.410;11.468;2023-06-22T17:17:00;2.70;;;2.70;;
22460;SDS011;11397;48.410;11.468;2023-06-22T17:22:04;2.58;;;2.58;;
22460;SDS011;11397;48.410;11.468;2023-06-22T17:27:08;2.78;;;2.67;;
22460;SDS011;11397;48.410;11.468;2023-06-22T17:32:10;2.60;;;2.60;;
22460;SDS011;11397;48.410;11.468;2023-06-22T17:37:12;2.70;;;2.70;;
22460;SDS011;11397;48.410;11.468;2023-06-22T17:42:15;2.90;;;2.80;;
22460;SDS011;11397;48.410;11.468;2023-06-22T17:47:22;3.00;;;2.90;;
22460;SDS011;11397;48.410;11.468;2023-06-22T17:52:26;2.88;;;2.78;;
22460;SDS011;11397;48.410;11.468;2023-06-22T17:57:30;2.55;;;2.55;;
22460;SDS011;11397;48.410;11.468;2023-06-22T18:02:37;2.60;;;2.60;;
22460;SDS011;11397;48.410;11.468;2023-06-22T18:07:42;2.70;;;2.70;;
22460;SDS011;11397;48.410;11.468;2023-06-22T18:12:45;2.60;;;2.60;;
22460;SDS011;11397;48.410;11.468;2023-06-22T18:17:49;2.72;;;2.63;;
22460;SDS011;11397;48.410;11.468;2023-06-22T18:22:52;2.67;;;2.67;;
22460;SDS011;11397;48.410;11.468;2023-06-22T18:27:55;2.72;;;2.70;;
22460;SDS011;11397;48.410;11.468;2023-06-22T18:32:57;3.08;;;2.97;;
22460;SDS011;11397;48.410;11.468;2023-06-22T18:37:59;3.05;;;2.95;;
22460;SDS011;11397;48.410;11.468;2023-06-22T18:43:02;2.63;;;2.63;;
22460;SDS011;11397;48.410;11.468;2023-06-22T18:48:04;2.90;;;2.80;;
22460;SDS011;11397;48.410;11.468;2023-06-22T18:53:10;2.97;;;2.88;;
22460;SDS011;11397;48.410;11.468;2023-06-22T18:58:14;2.70;;;2.65;;
22460;SDS011;11397;48.410;11.468;2023-06-22T19:03:28;3.25;;;3.15;;
22460;SDS011;11397;48.410;11.468;2023-06-22T19:13:48;3.20;;;3.10;;
22460;SDS011;11397;48.410;11.468;2023-06-22T19:18:51;3.00;;;2.90;;
22460;SDS011;11397;48.410;11.468;2023-06-22T19:23:55;3.22;;;3.13;;
22460;SDS011;11397;48.410;11.468;2023-06-22T19:28:58;3.08;;;2.97;;
22460;SDS011;11397;48.410;11.468;2023-06-22T19:34:01;3.05;;;2.95;;
22460;SDS011;11397;48.410;11.468;2023-06-22T19:39:04;3.17;;;3.08;;
22460;SDS011;11397;48.410;11.468;2023-06-22T19:44:07;3.10;;;3.00;;
22460;SDS011;11397;48.410;11.468;2023-06-22T19:49:09;2.65;;;2.65;;
22460;SDS011;11397;48.410;11.468;2023-06-22T19:54:11;3.05;;;2.95;;
22460;SDS011;11397;48.410;11.468;2023-06-22T19:59:16;3.30;;;3.20;;
22460;SDS011;11397;48.410;11.468;2023-06-22T20:04:19;3.00;;;2.90;;
22460;SDS011;11397;48.410;11.468;2023-06-22T20:09:21;3.15;;;3.05;;
22460;SDS011;11397;48.410;11.468;2023-06-22T20:14:24;3.03;;;2.92;;
22460;SDS011;11397;48.410;11.468;2023-06-22T20:19:34;3.17;;;3.08;;
22460;SDS011;11397;48.410;11.468;2023-06-22T20:24:36;3.13;;;3.03;;
22460;SDS011;11397;48.410;11.468;2023-06-22T20:29:40;3.13;;;3.03;;
22460;SDS011;11397;48.410;11.468;2023-06-22T20:34:42;3.28;;;3.17;;
22460;SDS011;11397;48.410;11.468;2023-06-22T20:39:45;3.25;;;3.15;;
22460;SDS011;11397;48.410;11.468;2023-06-22T20:44:49;3.53;;;3.42;;
22460;SDS011;11397;48.410;11.468;2023-06-22T20:49:51;3.50;;;3.40;;
22460;SDS011;11397;48.410;11.468;2023-06-22T20:54:57;3.40;;;3.30;;
22460;SDS011;11397;48.410;11.468;2023-06-22T21:00:01;3.30;;;3.20;;
22460;SDS011;11397;48.410;11.468;2023-06-22T21:05:06;3.60;;;3.50;;
22460;SDS011;11397;48.410;11.468;2023-06-22T21:10:08;3.50;;;3.40;;
22460;SDS011;11397;48.410;11.468;2023-06-22T21:15:12;3.28;;;3.17;;
22460;SDS011;11397;48.410;11.468;2023-06-22T21:20:14;3.22;;;3.13;;
22460;SDS011;11397;48.410;11.468;2023-06-22T21:25:16;3.53;;;3.42;;
22460;SDS011;11397;48.410;11.468;2023-06-22T21:30:19;3.40;;;3.30;;
22460;SDS011;11397;48.410;11.468;2023-06-22T21:35:21;3.47;;;3.38;;
22460;SDS011;11397;48.410;11.468;2023-06-22T21:40:22;3.28;;;3.17;;
22460;SDS011;11397;48.410;11.468;2023-06-22T21:45:25;3.30;;;3.20;;
22460;SDS011;11397;48.410;11.468;2023-06-22T21:50:28;3.30;;;3.20;;
22460;SDS011;11397;48.410;11.468;2023-06-22T21:55:31;3.50;;;3.40;;
22460;SDS011;11397;48.410;11.468;2023-06-22T22:00:34;3.28;;;3.17;;
22460;SDS011;11397;48.410;11.468;2023-06-22T22:05:36;3.33;;;3.22;;
22460;SDS011;11397;48.410;11.468;2023-06-22T22:10:38;3.40;;;3.30;;
22460;SDS011;11397;48.410;11.468;2023-06-22T22:15:41;3.55;;;3.45;;
22460;SDS011;11397;48.410;11.468;2023-06-22T22:20:43;3.50;;;3.40;;
22460;SDS011;11397;48.410;11.468;2023-06-22T22:25:45;3.47;;;3.38;;
22460;SDS011;11397;48.410;11.468;2023-06-22T22:30:48;3.40;;;3.30;;
22460;SDS011;11397;48.410;11.468;2023-06-22T22:35:50;3.38;;;3.28;;
22460;SDS011;11397;48.410;11.468;2023-06-22T22:40:52;3.20;;;3.10;;
22460;SDS011;11397;48.410;11.468;2023-06-22T22:45:55;2.95;;;2.85;;
22460;SDS011;11397;48.410;11.468;2023-06-22T22:50:57;3.20;;;3.10;;
22460;SDS011;11397;48.410;11.468;2023-06-22T22:55:59;3.40;;;3.30;;
22460;SDS011;11397;48.410;11.468;2023-06-22T23:01:02;3.58;;;3.47;;
22460;SDS011;11397;48.410;11.468;2023-06-22T23:06:04;3.53;;;3.42;;
22460;SDS011;11397;48.410;11.468;2023-06-22T23:11:06;3.30;;;3.20;;
22460;SDS011;11397;48.410;11.468;2023-06-22T23:16:09;3.10;;;3.00;;
22460;SDS011;11397;48.410;11.468;2023-06-22T23:21:11;3.25;;;3.15;;
22460;SDS011;11397;48.410;11.468;2023-06-22T23:26:13;2.90;;;2.80;;
22460;SDS011;11397;48.410;11.468;2023-06-22T23:31:17;3.38;;;3.28;;
22460;SDS011;11397;48.410;11.468;2023-06-22T23:36:19;3.30;;;3.20;;
22460;SDS011;11397;48.410;11.468;2023-06-22T23:41:20;3.53;;;3.42;;
22460;SDS011;11397;48.410;11.468;2023-06-22T23:46:26;3.40;;;3.30;;
22460;SDS011;11397;48.410;11.468;2023-06-22T23:51:31;3.33;;;3.22;;
22460;SDS011;11397;48.410;11.468;2023-06-22T23:56:33;3.50;;;3.40;;
